createdAt,value
2023-03-22T00:00:48.431Z,16.57
2023-03-22T00:05:54.620Z,14.59
2023-03-22T00:11:00.907Z,16.72
2023-03-22T00:16:07.381Z,16.46
2023-03-22T00:21:13.574Z,17.99
2023-03-22T00:26:19.650Z,14.96
2023-03-22T00:31:26.001Z,14.50
2023-03-22T00:36:32.097Z,17.74
2023-03-22T00:41:38.470Z,16.06
2023-03-22T00:46:44.574Z,17.47
2023-03-22T00:51:50.958Z,20.27
2023-03-22T00:56:57.093Z,18.53
2023-03-22T01:02:03.271Z,18.84
2023-03-22T01:07:09.364Z,21.21
2023-03-22T01:12:15.666Z,24.32
2023-03-22T01:18:26.412Z,25.88
2023-03-22T01:23:32.892Z,22.26
2023-03-22T01:28:39.056Z,22.28
2023-03-22T01:33:45.311Z,22.50
2023-03-22T01:38:51.558Z,23.92
2023-03-22T01:43:57.837Z,20.15
2023-03-22T01:49:03.957Z,23.73
2023-03-22T01:54:10.143Z,25.24
2023-03-22T01:59:16.215Z,19.80
2023-03-22T02:04:22.467Z,23.49
2023-03-22T02:09:28.596Z,18.73
2023-03-22T02:14:34.953Z,18.78
2023-03-22T02:19:41.217Z,19.06
2023-03-22T02:24:47.572Z,16.51
2023-03-22T02:29:53.685Z,16.52
2023-03-22T02:35:00.061Z,17.66
2023-03-22T02:40:06.256Z,15.44
2023-03-22T02:45:12.559Z,15.86
2023-03-22T02:50:18.653Z,14.01
2023-03-22T02:55:24.855Z,14.54
2023-03-22T03:00:31.105Z,15.62
2023-03-22T03:05:37.239Z,14.89
2023-03-22T03:10:43.421Z,11.60
2023-03-22T03:15:49.626Z,11.67
2023-03-22T03:20:55.811Z,12.27
2023-03-22T03:26:02.011Z,12.06
2023-03-22T03:31:08.173Z,11.43
2023-03-22T03:36:14.400Z,12.18
2023-03-22T03:41:20.483Z,11.23
2023-03-22T03:46:26.757Z,11.99
2023-03-22T03:51:32.813Z,10.95
2023-03-22T03:56:38.974Z,13.65
2023-03-22T04:01:45.333Z,9.31
2023-03-22T04:06:51.671Z,10.17
2023-03-22T04:11:57.747Z,10.17
2023-03-22T04:17:04.077Z,11.79
2023-03-22T04:22:10.165Z,10.80
2023-03-22T04:27:16.466Z,10.65
2023-03-22T04:32:22.587Z,13.78
2023-03-22T04:37:28.759Z,10.85
2023-03-22T04:42:34.963Z,10.98
2023-03-22T04:47:41.434Z,11.18
2023-03-22T04:52:47.589Z,10.67
2023-03-22T04:57:53.956Z,8.20
2023-03-22T05:03:00.123Z,11.23
2023-03-22T05:08:06.429Z,9.27
2023-03-22T05:13:12.612Z,8.16
2023-03-22T05:18:18.851Z,10.03
2023-03-22T05:23:24.945Z,9.09
2023-03-22T05:28:31.278Z,13.40
2023-03-22T05:33:37.372Z,10.99
2023-03-22T05:38:43.786Z,10.85
2023-03-22T05:43:49.866Z,11.70
2023-03-22T05:48:56.879Z,15.07
2023-03-22T05:54:02.962Z,13.86
2023-03-22T05:59:09.334Z,18.11
2023-03-22T06:04:15.481Z,14.23
2023-03-22T06:09:21.676Z,17.94
2023-03-22T06:14:27.819Z,19.23
2023-03-22T06:19:34.119Z,16.56
2023-03-22T06:24:40.205Z,15.98
2023-03-22T06:29:46.477Z,17.40
2023-03-22T06:34:52.581Z,17.93
2023-03-22T06:39:58.759Z,16.86
2023-03-22T06:45:04.895Z,21.36
2023-03-22T06:50:11.098Z,20.43
2023-03-22T06:55:17.201Z,18.83
2023-03-22T07:00:23.392Z,19.51
2023-03-22T07:05:29.491Z,19.17
2023-03-22T07:10:35.678Z,17.48
2023-03-22T07:15:41.862Z,15.71
2023-03-22T07:20:48.030Z,15.82
2023-03-22T07:25:54.118Z,17.39
2023-03-22T07:31:00.348Z,15.91
2023-03-22T07:36:06.511Z,15.65
2023-03-22T07:41:12.697Z,15.36
2023-03-22T07:46:19.100Z,15.02
2023-03-22T07:51:25.072Z,13.08
2023-03-22T07:56:31.212Z,16.02
2023-03-22T08:01:37.526Z,12.78
2023-03-22T08:06:43.570Z,15.15
2023-03-22T08:11:49.972Z,10.53
2023-03-22T08:16:55.997Z,13.53
2023-03-22T08:22:02.207Z,11.49
2023-03-22T08:27:08.406Z,11.60
2023-03-22T08:32:14.592Z,10.25
2023-03-22T08:37:20.804Z,12.38
2023-03-22T08:42:26.994Z,12.06
2023-03-22T08:47:33.185Z,11.20
2023-03-22T08:52:39.490Z,9.08
2023-03-22T08:57:45.889Z,11.74
2023-03-22T09:02:52.074Z,11.39
2023-03-22T09:08:05.799Z,11.08
2023-03-22T09:13:03.956Z,11.80
2023-03-22T09:18:10.095Z,10.66
2023-03-22T09:23:16.298Z,9.78
2023-03-22T09:28:22.493Z,9.40
2023-03-22T09:33:28.555Z,8.45
2023-03-22T09:38:34.722Z,10.45
2023-03-22T09:43:40.901Z,7.27
2023-03-22T09:48:48.340Z,9.04
2023-03-22T09:53:52.650Z,6.68
2023-03-22T09:58:58.877Z,6.05
2023-03-22T10:04:05.189Z,6.96
2023-03-22T10:09:11.317Z,5.69
2023-03-22T10:14:17.650Z,8.29
2023-03-22T10:19:23.746Z,5.32
2023-03-22T10:24:30.027Z,7.71
2023-03-22T10:29:36.106Z,5.09
2023-03-22T10:34:42.268Z,6.05
2023-03-22T10:39:48.503Z,6.33
2023-03-22T10:44:54.747Z,4.86
2023-03-22T10:50:00.851Z,5.27
2023-03-22T10:55:07.546Z,6.75
2023-03-22T11:00:13.702Z,6.18
2023-03-22T11:05:19.969Z,5.93
2023-03-22T11:10:26.133Z,6.82
2023-03-22T11:15:32.331Z,7.47
2023-03-22T11:20:38.669Z,9.06
2023-03-22T11:25:44.588Z,6.75
2023-03-22T11:30:50.658Z,5.62
2023-03-22T11:35:56.899Z,7.54
2023-03-22T11:41:02.986Z,6.32
2023-03-22T11:46:09.366Z,7.66
2023-03-22T11:51:15.431Z,7.28
2023-03-22T11:56:21.727Z,8.08
2023-03-22T12:01:27.681Z,9.00
2023-03-22T12:06:33.953Z,6.50
2023-03-22T12:11:39.977Z,11.10
2023-03-22T12:16:46.255Z,6.28
2023-03-22T12:21:52.236Z,8.85
2023-03-22T12:26:58.549Z,8.30
2023-03-22T12:32:04.594Z,8.06
2023-03-22T12:37:10.817Z,7.26
2023-03-22T12:42:16.968Z,9.34
2023-03-22T12:47:23.196Z,6.31
2023-03-22T12:52:34.708Z,7.70
2023-03-22T12:57:35.098Z,7.71
2023-03-22T13:02:41.371Z,8.62
2023-03-22T13:07:47.537Z,7.20
2023-03-22T13:12:53.618Z,7.06
2023-03-22T13:17:59.971Z,6.38
2023-03-22T13:23:05.938Z,7.39
2023-03-22T13:28:12.099Z,9.55
2023-03-22T13:33:18.283Z,6.75
2023-03-22T13:38:26.667Z,8.16
2023-03-22T13:43:32.800Z,6.43
2023-03-22T13:48:39.019Z,5.90
2023-03-22T13:53:45.068Z,7.61
2023-03-22T13:58:51.311Z,8.25
2023-03-22T14:04:00.215Z,4.93
2023-03-22T14:09:06.350Z,7.19
2023-03-22T14:14:12.478Z,7.85
2023-03-22T14:19:18.643Z,5.94
